AirNav   Air Wisconsin pilot careers
 
 901 users online  

3W7 Grand Coulee Dam Airport
Electric City, Washington, USA

GOING TO ELECTRIC CITY?


FAA INFORMATION EFFECTIVE 16 AUGUST 2018

Location

FAA Identifier: 3W7
Lat/Long: 47-55-19.4000N / 119-04-58.8000W
47-55.323333N / 119-04.980000W
47.9220556 / -119.0830000
(estimated)
Elevation: 1593.1 ft. / 485.6 m (surveyed)
Variation: 15E (2020)
From city: 2 miles SW of ELECTRIC CITY, WA
Time zone: UTC -7 (UTC -8 during Standard Time)
Zip code: 99123

Airport Operations

Airport use: Open to the public
Activation date: 10/1972
Control tower: no
ARTCC: SEATTLE CENTER
FSS: SEATTLE FLIGHT SERVICE STATION
NOTAMs facility: SEA (NOTAM-D service available)
Attendance: UNATNDD
Wind indicator: lighted
Segmented circle: yes
Lights: ACTVT MIRL RWY 04/22 - CTAF.
Beacon: white-green (lighted land airport)
Operates sunset to sunrise.

Airport Communications

CTAF: 122.9
WX AWOS-2 at 2S8 (17 nm SE): 124.175 (509-647-0337)

Nearby radio navigation aids

VOR radial/distance  VOR name  Freq  Var
EPHr002/35.4EPHRATA VORTAC112.6021E

Airport Services

Parking: tiedowns
Airframe service: NONE
Powerplant service: NONE
Bottled oxygen: NONE
Bulk oxygen: NONE

Runway Information

Runway 4/22

Dimensions: 4203 x 75 ft. / 1281 x 23 m
Surface: asphalt, in good condition
Weight bearing capacity: 
Single wheel: 26.0
Runway edge lights: medium intensity
RUNWAY 4  RUNWAY 22
Latitude: 47-55.106768N47-55.538815N
Longitude: 119-05.381922W119-04.579373W
Elevation: 1588.7 ft.1589.0 ft.
Gradient: 0.2%0.2%
Traffic pattern: leftright
Runway heading: 036 magnetic, 051 true216 magnetic, 231 true
Markings: basic, in good conditionbasic, in good condition
Touchdown point: yes, no lightsyes, no lights
Obstructions: 490 ft. hill, 9000 ft. from runway, 17:1 slope to clear8 ft. gnd, 421 ft. from runway, 144 ft. left of centerline, 27:1 slope to clear

Airport Ownership and Management from official FAA records

Ownership: Publicly-owned
Owner: GRANT CO PORT DIST NR 7
COMMISSIONER JAMES KEENE, BOX , BOX 616
GRAND COULEE, WA 99133
Phone (509) 633-3108
Manager: ROBERT BABLER
P.O. BOX 182
GRAND COULEE, WA 99133
Phone 509-633-1319

Airport Operational Statistics

Aircraft based on the field: 9
Single engine airplanes: 8
Ultralights: 1
    
Aircraft operations: avg 36/day *
62% transient general aviation
38% local general aviation
* for 12-month period ending 31 December 2015

Additional Remarks

GEESE AND OTHER WILDLIFE INVOF RUNWAY.

Instrument Procedures

There are no published instrument procedures at 3W7.

Some nearby airports with instrument procedures:

2S8 - Wilbur Airport (17 nm SE)
KOMK - Omak Airport (37 nm NW)
KEPH - Ephrata Municipal Airport (41 nm SW)
KMWH - Grant County International Airport (44 nm S)
KEAT - Pangborn Memorial Airport (55 nm SW)
 
Loc | Ops | Rwys | IFR | FBO | Links
Com | Nav | Svcs | Stats | Notes


 
Area around 3W7 (Grand Coulee Dam Airport)
 
Road maps at: MapQuest Bing Google
 
Aerial photo
WARNING: Photo may not be current or correct
Aerial photo of 3W7 (Grand Coulee Dam Airport)
Photo taken 16-Aug-2014
looking southeast.

Do you have a better or more recent aerial photo of Grand Coulee Dam Airport that you would like to share? If so, please send us your photo.

 
Sectional chart

 
Airport distance calculator
Flying to Grand Coulee Dam Airport? Find the distance to fly.

From to 3W7

Sunrise and sunset
Times for 19-Aug-2018
 Local
(UTC-7)
 Zulu
(UTC)
Morning civil twilight05:2412:24
Sunrise05:5812:58
Sunset20:0203:02
Evening civil twilight20:3603:36

Current date and time
Zulu (UTC)  19-Aug-2018 13:19:42
Local (UTC-7)  19-Aug-2018 06:19:42
 
METAR
S10 
35nm W 
SuperAWOS
191255Z AUTO 00000KT 3SM HZ 18/05 A3009
KOMK 
37nm NW 
191253Z AUTO 33013KT 1SM HZ OVC022 18/08 A3011 RMK AO2 SLP189 T01780078
KEPH 
41nm SW 
191253Z AUTO 35013KT 3/4SM HZ OVC023 21/03 A3004 RMK AO2 SLP163 T02110033
KMWH 
44nm S 
191252Z 01005KT 3SM HZ FU OVC025 14/07 A3005 RMK AO2 SLP169 T01440067
TAF
KMWH 
44nm S 
191120Z 1912/2012 36007KT 4SM HZ FU OVC035 FM191900 36007KT 6SM FU SCT030 FM201100 35012KT P6SM SCT060
NOTAMs
Click for the latest NOTAMs
NOTAMs are issued by the DoD/FAA and will open in a separate window not controlled by AirNav.

 

 
 

Would you like to see your business listed on this page?

 If your business provides an interesting product or service to pilots, flight crews, aircraft, or users of the Grand Coulee Dam Airport, you should consider listing it here.  To start the listing process, click on the button below
 
Add a business
 

Other Pages about Grand Coulee Dam Airport

Update a link
 
Copyright © AirNav, LLC. All rights reserved. Privacy Policy  Contact